Pavlovskij Posad, Russia
Current Conditions -  °F | °C
As of 5:00 PM on Thursday 27 Nov 2014 (Local Time) from UUDD Reporting Station
Light Snow Light Snow  
Wind Chill:   Ceiling: 300
Heat Index: 14°   Visibility: 0.68mi
Dew Point: 12°   Wind: 4mph
Humidity: 93%   Direction: 120°ESE
Pressure: 30.48"   Gusts: NA
Location:  55.78°N, 38.65°E
Report Text: UUDD 271400Z 12002MPS 090V160 1100 R32L/P1500U R32R/P1500D -SNBR BKN003 OVC100 M10/M11 Q1032 32290095 82290095 TEMPO 1000
Loading
Personal Weather Stations






























Interactive Weather Map New forecast layout! Learn more

10-Day Weather Forecast

Advertisements
Track Severe Weather on mobile